Time;durP1;ratioP1;P1;durP2;ratioP2;P2;SDS_P1;SDS_P2;PMS_P1;PMS_P2;Temp;Humidity;BMP_temperature;BMP_pressure;BME280_temperature;BME280_humidity;BME280_pressure;Samples;Min_cycle;Max_cycle;Signal;HPM_P1;HPM_P2
2022/02/28 00:02:06;;;;;;;12.27;8.07;;;5.90;65.70;;;;;;5019504;28;20215;-65
2022/02/28 00:04:33;;;;;;;11.23;7.63;;;5.80;65.80;;;;;;5024435;28;20205;-65
2022/02/28 00:07:00;;;;;;;15.37;7.10;;;5.80;66.10;;;;;;5025099;28;20695;-65
2022/02/28 00:09:27;;;;;;;13.23;8.00;;;5.80;66.10;;;;;;5019823;28;20197;-65
2022/02/28 00:11:54;;;;;;;16.43;8.50;;;5.80;66.10;;;;;;5018401;28;20514;-65
2022/02/28 00:14:22;;;;;;;18.47;8.27;;;5.80;66.10;;;;;;5029864;28;20239;-65
2022/02/28 00:16:49;;;;;;;13.07;8.03;;;5.70;66.10;;;;;;5026037;28;20226;-65
2022/02/28 00:19:16;;;;;;;12.07;7.27;;;5.60;66.30;;;;;;5030297;28;20664;-65
2022/02/28 00:21:44;;;;;;;15.40;7.57;;;5.60;66.70;;;;;;5021114;28;20673;-65
2022/02/28 00:24:11;;;;;;;14.33;7.67;;;5.60;67.40;;;;;;5021066;28;20215;-65
2022/02/28 00:26:38;;;;;;;9.40;6.47;;;5.70;67.60;;;;;;5007918;28;20598;-65
2022/02/28 00:29:05;;;;;;;15.50;8.63;;;5.70;67.60;;;;;;5023443;28;20202;-66
2022/02/28 00:31:33;;;;;;;10.97;7.77;;;5.70;67.50;;;;;;5018580;28;20209;-66
2022/02/28 00:34:01;;;;;;;14.37;8.13;;;5.70;67.30;;;;;;5017443;28;20229;-66
2022/02/28 00:36:28;;;;;;;16.20;7.77;;;5.70;67.60;;;;;;5022463;28;20214;-65
2022/02/28 00:38:55;;;;;;;11.23;6.77;;;5.70;67.50;;;;;;5008351;28;20214;-65
2022/02/28 00:41:22;;;;;;;13.23;7.47;;;5.70;67.60;;;;;;5021220;28;20587;-65
2022/02/28 00:43:49;;;;;;;12.53;7.20;;;5.60;67.10;;;;;;5017495;28;20685;-65
2022/02/28 00:46:16;;;;;;;11.53;7.67;;;5.60;67.20;;;;;;5028318;28;20256;-65
2022/02/28 00:48:44;;;;;;;17.97;8.03;;;5.50;67.40;;;;;;5006945;28;20214;-65
2022/02/28 00:51:11;;;;;;;14.40;7.53;;;5.50;67.40;;;;;;5029033;28;20226;-65
2022/02/28 00:53:39;;;;;;;12.70;7.83;;;5.40;68.00;;;;;;5021895;28;20537;-65
2022/02/28 00:56:07;;;;;;;15.77;8.13;;;5.30;68.00;;;;;;5017765;28;20663;-66
2022/02/28 00:58:34;;;;;;;11.80;7.93;;;5.30;68.60;;;;;;5016320;28;20249;-65
2022/02/28 01:01:01;;;;;;;11.87;8.13;;;5.20;69.10;;;;;;5003132;28;20226;-66
2022/02/28 01:03:29;;;;;;;11.87;7.07;;;5.20;69.40;;;;;;5001431;28;20215;-66
2022/02/28 01:05:56;;;;;;;12.23;7.60;;;5.20;69.50;;;;;;4997345;28;20254;-66
2022/02/28 01:08:23;;;;;;;10.60;7.40;;;5.20;69.80;;;;;;5021286;28;20224;-65
2022/02/28 01:10:51;;;;;;;11.43;7.53;;;5.20;70.00;;;;;;5003021;28;20216;-65
2022/02/28 01:13:18;;;;;;;14.60;8.30;;;5.30;70.40;;;;;;5018845;28;20541;-65
2022/02/28 01:15:47;;;;;;;14.13;7.37;;;5.30;70.30;;;;;;4997719;28;20208;-65
2022/02/28 01:18:15;;;;;;;11.07;7.90;;;5.30;70.00;;;;;;4999356;28;20572;-65
2022/02/28 01:20:43;;;;;;;20.47;8.67;;;5.30;70.00;;;;;;5012236;28;20216;-65
2022/02/28 01:23:10;;;;;;;21.60;8.83;;;5.30;69.70;;;;;;5017126;28;20640;-65
2022/02/28 01:25:38;;;;;;;15.10;9.10;;;5.30;69.80;;;;;;4996461;28;20218;-65
2022/02/28 01:28:05;;;;;;;14.20;9.47;;;5.30;69.90;;;;;;4999038;28;20264;-65
2022/02/28 01:30:32;;;;;;;16.20;9.00;;;5.20;69.80;;;;;;4998660;28;20295;-65
2022/02/28 01:32:59;;;;;;;20.83;9.67;;;5.20;70.10;;;;;;5017538;28;20231;-65
2022/02/28 01:35:26;;;;;;;15.17;8.20;;;5.20;70.60;;;;;;5000095;28;20694;-65
2022/02/28 01:37:53;;;;;;;13.03;8.67;;;5.10;69.80;;;;;;5015363;28;20225;-65
2022/02/28 01:40:20;;;;;;;14.03;7.83;;;5.00;69.00;;;;;;5013093;28;20644;-65
2022/02/28 01:42:48;;;;;;;11.10;7.37;;;4.90;68.90;;;;;;5007127;28;20209;-65
2022/02/28 01:45:21;;;;;;;12.27;7.80;;;4.80;69.30;;;;;;5003795;28;20216;-65
2022/02/28 01:47:54;;;;;;;9.80;7.33;;;4.70;69.60;;;;;;5009965;28;20231;-65
2022/02/28 01:50:22;;;;;;;17.00;7.70;;;4.60;69.80;;;;;;4997071;28;20220;-65
2022/02/28 01:52:49;;;;;;;13.73;8.07;;;4.60;70.10;;;;;;5008577;28;20302;-65
2022/02/28 01:55:18;;;;;;;13.57;8.23;;;4.60;70.40;;;;;;5018644;28;20235;-65
2022/02/28 01:57:48;;;;;;;12.33;7.97;;;4.50;70.80;;;;;;4994753;28;20303;-65
2022/02/28 02:00:18;;;;;;;12.67;7.27;;;4.40;71.20;;;;;;4995006;28;20239;-65
2022/02/28 02:02:46;;;;;;;14.63;8.23;;;4.40;71.30;;;;;;4996293;28;20218;-65
2022/02/28 02:05:13;;;;;;;8.27;6.97;;;4.40;71.30;;;;;;5016983;28;20226;-65
2022/02/28 02:07:41;;;;;;;13.67;7.57;;;4.20;71.20;;;;;;5018879;28;20679;-65
2022/02/28 02:10:11;;;;;;;12.20;7.23;;;4.20;71.40;;;;;;5016086;28;20657;-65
2022/02/28 02:12:39;;;;;;;17.03;8.23;;;4.10;71.50;;;;;;4996608;28;20225;-65
2022/02/28 02:15:09;;;;;;;12.37;7.23;;;4.10;71.80;;;;;;5001433;28;20205;-65
2022/02/28 02:17:37;;;;;;;13.00;7.73;;;4.00;72.00;;;;;;5018868;28;20214;-65
2022/02/28 02:20:21;;;;;;;9.03;7.17;;;4.00;72.20;;;;;;5019188;28;20214;-65
2022/02/28 02:22:55;;;;;;;16.23;7.83;;;3.90;72.40;;;;;;4995675;28;20227;-65
2022/02/28 02:25:23;;;;;;;13.40;7.60;;;3.90;72.60;;;;;;4998930;28;20213;-65
2022/02/28 02:27:50;;;;;;;16.17;7.33;;;3.90;72.70;;;;;;5003160;28;20226;-65
2022/02/28 02:30:18;;;;;;;12.10;7.30;;;3.80;72.80;;;;;;5017470;28;20209;-65
2022/02/28 02:32:45;;;;;;;16.17;7.77;;;3.80;72.80;;;;;;5001155;28;20210;-65
2022/02/28 02:35:12;;;;;;;10.87;7.83;;;3.70;72.80;;;;;;5014978;28;20216;-66
2022/02/28 02:37:39;;;;;;;13.63;8.03;;;3.70;73.00;;;;;;5009270;28;20217;-66
2022/02/28 02:40:08;;;;;;;10.93;7.30;;;3.70;73.20;;;;;;4992132;28;20228;-66
2022/02/28 02:42:35;;;;;;;11.13;7.73;;;3.60;73.20;;;;;;5013401;28;20339;-65
2022/02/28 02:45:03;;;;;;;12.93;7.93;;;3.60;73.30;;;;;;5000512;28;20232;-65
2022/02/28 02:47:30;;;;;;;12.97;7.30;;;3.50;73.30;;;;;;5003394;28;20239;-65
2022/02/28 02:50:07;;;;;;;11.97;7.50;;;3.50;73.60;;;;;;5000525;28;20727;-65
2022/02/28 02:52:35;;;;;;;12.83;8.47;;;3.50;73.90;;;;;;5023757;28;20228;-65
2022/02/28 02:55:04;;;;;;;12.30;7.57;;;3.50;74.70;;;;;;5011111;28;20204;-65
2022/02/28 02:57:31;;;;;;;13.20;7.17;;;3.40;74.00;;;;;;4999841;28;20227;-65
2022/02/28 03:00:07;;;;;;;12.10;7.53;;;3.40;74.00;;;;;;5020239;28;20245;-65
2022/02/28 03:02:47;;;;;;;14.17;8.43;;;3.40;74.20;;;;;;5021857;28;20228;-65
2022/02/28 03:05:14;;;;;;;17.97;7.87;;;3.30;74.90;;;;;;5000265;28;20685;-65
2022/02/28 03:07:42;;;;;;;15.90;7.87;;;3.30;74.30;;;;;;4999697;28;20744;-65
2022/02/28 03:10:10;;;;;;;17.90;8.47;;;3.30;74.40;;;;;;5004763;28;20271;-65
2022/02/28 03:12:39;;;;;;;14.53;8.10;;;3.20;74.30;;;;;;5006239;28;20206;-65
2022/02/28 03:15:07;;;;;;;10.47;7.60;;;3.20;74.30;;;;;;5001759;28;20209;-65
2022/02/28 03:17:34;;;;;;;15.73;8.17;;;3.10;74.30;;;;;;5011796;28;20557;-65
2022/02/28 03:20:03;;;;;;;15.77;8.23;;;3.10;74.40;;;;;;5010918;28;20210;-65
2022/02/28 03:22:30;;;;;;;14.00;8.90;;;3.10;74.50;;;;;;5005144;28;20208;-65
2022/02/28 03:24:59;;;;;;;12.00;8.27;;;3.10;74.70;;;;;;5016166;28;20221;-65
2022/02/28 03:27:27;;;;;;;15.43;8.57;;;3.10;74.90;;;;;;5011783;28;20264;-65
2022/02/28 03:29:55;;;;;;;13.90;8.03;;;3.10;75.30;;;;;;5013819;28;20216;-65
2022/02/28 03:32:22;;;;;;;14.27;8.63;;;3.10;75.20;;;;;;5003176;28;20520;-65
2022/02/28 03:34:50;;;;;;;13.20;7.50;;;3.10;75.10;;;;;;5004763;28;20216;-65
2022/02/28 03:37:18;;;;;;;16.23;7.57;;;3.10;75.00;;;;;;5001060;28;20303;-65
2022/02/28 03:39:45;;;;;;;11.70;8.20;;;3.10;74.90;;;;;;5018271;28;20209;-65
2022/02/28 03:42:12;;;;;;;16.50;8.27;;;3.00;74.70;;;;;;5019498;28;20245;-65
2022/02/28 03:44:40;;;;;;;17.43;8.07;;;3.00;74.40;;;;;;5005191;28;20259;-65
2022/02/28 03:47:08;;;;;;;15.93;8.40;;;2.90;74.50;;;;;;4995701;28;20226;-65
2022/02/28 03:49:55;;;;;;;14.60;9.70;;;2.90;74.90;;;;;;5008267;28;20221;-65
2022/02/28 03:52:30;;;;;;;19.27;9.30;;;2.90;75.00;;;;;;5013083;28;20227;-65
2022/02/28 03:55:05;;;;;;;18.37;9.87;;;2.80;75.00;;;;;;5003110;28;20218;-65
2022/02/28 03:57:35;;;;;;;12.43;8.67;;;2.80;75.10;;;;;;5015104;28;20296;-65
2022/02/28 04:00:06;;;;;;;18.10;10.47;;;2.80;75.20;;;;;;5012496;28;20314;-65
2022/02/28 04:02:43;;;;;;;20.20;10.87;;;2.80;75.00;;;;;;4997007;28;20312;-65
2022/02/28 04:05:11;;;;;;;17.77;11.07;;;2.80;74.90;;;;;;5000499;28;20573;-65
2022/02/28 04:07:40;;;;;;;15.40;10.67;;;2.80;74.80;;;;;;5007618;28;20218;-65
2022/02/28 04:10:07;;;;;;;14.93;10.30;;;2.80;74.60;;;;;;5002110;28;20224;-65
2022/02/28 04:12:37;;;;;;;15.47;11.07;;;2.80;74.30;;;;;;4997836;28;20209;-65
2022/02/28 04:15:05;;;;;;;15.07;10.17;;;2.80;74.10;;;;;;5009552;28;20220;-65
2022/02/28 04:17:33;;;;;;;19.10;10.80;;;2.80;73.90;;;;;;5005736;28;20220;-65
2022/02/28 04:20:18;;;;;;;14.80;10.13;;;2.80;73.80;;;;;;5008897;28;20228;-65
2022/02/28 04:22:46;;;;;;;14.97;9.87;;;2.80;73.70;;;;;;5012114;28;20571;-65
2022/02/28 04:25:13;;;;;;;14.17;9.70;;;2.70;73.50;;;;;;4990588;28;20220;-65
2022/02/28 04:27:40;;;;;;;19.67;11.37;;;2.70;73.40;;;;;;5000748;28;20257;-65
2022/02/28 04:30:11;;;;;;;12.97;10.70;;;2.70;73.30;;;;;;5002748;28;20290;-65
2022/02/28 04:32:39;;;;;;;17.20;10.30;;;2.70;73.30;;;;;;5014118;28;20210;-65
2022/02/28 04:35:09;;;;;;;14.20;10.33;;;2.60;73.10;;;;;;5011492;28;20215;-65
2022/02/28 04:37:40;;;;;;;18.67;9.50;;;2.60;73.30;;;;;;5019791;28;20208;-65
2022/02/28 04:40:10;;;;;;;15.17;9.33;;;2.60;73.40;;;;;;5017283;28;20200;-66
2022/02/28 04:42:39;;;;;;;13.77;9.10;;;2.60;73.30;;;;;;5003549;28;20689;-66
2022/02/28 04:45:06;;;;;;;13.00;9.37;;;2.60;73.20;;;;;;5001477;28;20593;-65
2022/02/28 04:47:34;;;;;;;15.70;9.83;;;2.50;73.00;;;;;;5012728;28;20296;-65
2022/02/28 04:50:32;;;;;;;15.37;10.27;;;2.50;73.00;;;;;;5013369;28;20208;-65
2022/02/28 04:52:59;;;;;;;12.47;9.37;;;2.50;73.00;;;;;;5013295;28;20654;-66
2022/02/28 04:55:27;;;;;;;15.80;10.40;;;2.50;73.00;;;;;;5006312;28;20204;-66
2022/02/28 04:57:54;;;;;;;15.17;10.67;;;2.50;73.10;;;;;;5001014;28;20220;-66
2022/02/28 05:00:41;;;;;;;21.83;9.67;;;2.50;73.10;;;;;;4996457;28;20275;-66
2022/02/28 05:03:10;;;;;;;15.87;10.33;;;2.50;73.00;;;;;;5025801;28;20218;-66
2022/02/28 05:05:38;;;;;;;15.43;8.70;;;2.50;72.90;;;;;;5005967;28;20216;-66
2022/02/28 05:08:05;;;;;;;17.53;10.30;;;2.50;73.00;;;;;;5004384;28;20341;-66
2022/02/28 05:10:32;;;;;;;13.30;9.00;;;2.40;73.00;;;;;;5010732;28;20217;-66
2022/02/28 05:13:12;;;;;;;16.00;8.60;;;2.50;73.10;;;;;;5027106;28;20220;-66
2022/02/28 05:15:39;;;;;;;15.27;9.43;;;2.40;73.00;;;;;;5027414;28;20558;-66
2022/02/28 05:18:08;;;;;;;19.63;9.37;;;2.40;72.70;;;;;;5007089;28;20224;-66
2022/02/28 05:20:35;;;;;;;11.93;8.53;;;2.50;72.60;;;;;;5012642;28;20219;-66
2022/02/28 05:23:02;;;;;;;14.53;8.67;;;2.40;72.50;;;;;;5023510;28;20674;-65
2022/02/28 05:25:29;;;;;;;15.40;9.03;;;2.40;72.40;;;;;;5027969;28;20218;-66
2022/02/28 05:27:57;;;;;;;15.50;8.53;;;2.40;72.40;;;;;;5001186;28;20225;-66
2022/02/28 05:30:24;;;;;;;13.17;8.23;;;2.40;72.40;;;;;;4997080;28;20201;-66
2022/02/28 05:32:54;;;;;;;13.10;8.30;;;2.40;72.40;;;;;;5015755;28;20236;-66
2022/02/28 05:35:28;;;;;;;13.50;8.03;;;2.40;72.40;;;;;;5004902;28;20216;-66
2022/02/28 05:38:10;;;;;;;11.87;8.37;;;2.40;72.30;;;;;;5017961;28;20217;-66
2022/02/28 05:40:40;;;;;;;10.57;7.97;;;2.30;72.30;;;;;;5010808;28;20305;-66
2022/02/28 05:43:10;;;;;;;13.20;8.77;;;2.30;72.20;;;;;;5022731;28;20217;-66
2022/02/28 05:45:39;;;;;;;9.87;7.20;;;2.30;72.30;;;;;;5004171;28;20227;-66
2022/02/28 05:48:26;;;;;;;11.63;8.03;;;2.30;72.30;;;;;;5007073;28;20400;-66
2022/02/28 05:50:53;;;;;;;12.63;8.90;;;2.30;72.30;;;;;;4993686;28;20215;-66
2022/02/28 05:53:20;;;;;;;15.87;9.03;;;2.30;72.40;;;;;;4997868;28;20264;-66
2022/02/28 05:55:47;;;;;;;13.73;10.17;;;2.30;72.50;;;;;;4999462;28;20295;-66
2022/02/28 05:58:14;;;;;;;18.77;9.67;;;2.30;72.90;;;;;;5008013;28;20207;-66
2022/02/28 06:00:41;;;;;;;22.50;10.80;;;2.30;73.10;;;;;;5020259;28;20283;-66
2022/02/28 06:03:08;;;;;;;22.30;10.67;;;2.30;73.20;;;;;;5016385;28;20536;-66
2022/02/28 06:05:36;;;;;;;17.37;10.27;;;2.30;73.30;;;;;;5017182;28;20537;-66
2022/02/28 06:08:03;;;;;;;18.43;10.60;;;2.30;73.30;;;;;;5025736;28;20279;-66
2022/02/28 06:10:30;;;;;;;16.30;9.53;;;2.30;73.30;;;;;;5022187;28;20208;-66
2022/02/28 06:12:57;;;;;;;17.40;10.80;;;2.40;73.40;;;;;;5017946;28;20610;-66
2022/02/28 06:15:31;;;;;;;15.60;10.07;;;2.40;73.50;;;;;;5003738;28;20264;-66
2022/02/28 06:17:59;;;;;;;13.53;8.43;;;2.40;73.50;;;;;;5003574;28;20241;-66
2022/02/28 06:20:27;;;;;;;16.23;8.80;;;2.40;73.60;;;;;;5024991;28;20204;-66
2022/02/28 06:22:54;;;;;;;17.13;9.40;;;2.40;73.60;;;;;;5021785;28;20568;-66
2022/02/28 06:25:22;;;;;;;18.63;9.50;;;2.50;73.60;;;;;;5016021;28;20212;-66
2022/02/28 06:27:51;;;;;;;12.73;7.97;;;2.60;73.50;;;;;;5018791;28;20568;-66
2022/02/28 06:30:21;;;;;;;15.97;9.00;;;2.70;73.40;;;;;;5022520;28;20232;-66
2022/02/28 06:32:48;;;;;;;15.23;8.13;;;2.80;73.00;;;;;;5022123;28;20626;-67
2022/02/28 06:35:16;;;;;;;13.87;8.43;;;2.90;71.70;;;;;;5019019;28;20204;-66
2022/02/28 06:37:43;;;;;;;15.70;9.13;;;3.00;70.80;;;;;;5016550;28;20219;-66
2022/02/28 06:40:11;;;;;;;12.10;8.20;;;3.10;70.50;;;;;;5024964;28;20224;-66
2022/02/28 06:42:38;;;;;;;13.80;8.43;;;3.10;70.70;;;;;;5022103;28;20222;-66
2022/02/28 06:45:05;;;;;;;15.03;8.97;;;3.10;71.10;;;;;;5025009;28;20204;-66
2022/02/28 06:47:33;;;;;;;13.70;8.23;;;3.10;71.10;;;;;;5017104;28;20310;-66
2022/02/28 06:49:59;;;;;;;18.03;8.00;;;3.20;71.20;;;;;;5011427;28;20209;-66
2022/02/28 06:52:27;;;;;;;18.90;8.47;;;3.30;71.20;;;;;;5021933;28;20197;-66
2022/02/28 06:54:55;;;;;;;17.70;8.33;;;3.40;71.20;;;;;;5019239;28;20502;-67
2022/02/28 06:57:24;;;;;;;11.23;8.13;;;3.40;71.00;;;;;;5016361;28;20493;-66
2022/02/28 06:59:51;;;;;;;11.23;8.50;;;3.50;70.80;;;;;;5014854;28;20263;-66
2022/02/28 07:02:19;;;;;;;12.07;7.70;;;3.60;70.70;;;;;;4996473;28;20208;-66
2022/02/28 07:04:51;;;;;;;14.23;8.37;;;3.70;70.70;;;;;;5022038;28;20204;-66
2022/02/28 07:07:18;;;;;;;11.77;7.67;;;3.80;70.60;;;;;;5018674;28;20220;-66
2022/02/28 07:09:46;;;;;;;12.77;8.50;;;3.90;70.60;;;;;;4998416;28;20205;-66
2022/02/28 07:12:14;;;;;;;11.70;7.37;;;4.00;70.60;;;;;;5025158;28;20212;-66
2022/02/28 07:14:42;;;;;;;12.57;8.00;;;4.10;70.60;;;;;;5025188;28;20208;-66
2022/02/28 07:17:09;;;;;;;7.77;6.67;;;4.30;70.60;;;;;;5024633;28;20220;-65
2022/02/28 07:19:36;;;;;;;11.77;8.00;;;4.50;70.30;;;;;;5023295;28;20215;-65
2022/02/28 07:22:04;;;;;;;10.77;6.67;;;4.80;69.60;;;;;;5016546;28;20287;-65
2022/02/28 07:24:31;;;;;;;9.50;6.77;;;5.10;68.00;;;;;;5024315;28;20205;-65
2022/02/28 07:26:58;;;;;;;10.60;8.10;;;5.20;67.10;;;;;;5007962;28;20675;-65
2022/02/28 07:29:25;;;;;;;9.37;6.83;;;5.40;67.00;;;;;;5021591;28;20224;-65
2022/02/28 07:31:54;;;;;;;14.23;7.83;;;5.50;67.10;;;;;;5018634;28;20207;-66
2022/02/28 07:34:21;;;;;;;10.97;7.50;;;5.70;67.20;;;;;;5023564;28;20207;-65
2022/02/28 07:36:48;;;;;;;9.93;6.77;;;5.80;67.30;;;;;;5026647;28;20225;-65
2022/02/28 07:39:17;;;;;;;9.97;7.33;;;5.90;67.10;;;;;;5023567;28;20232;-65
2022/02/28 07:41:45;;;;;;;14.93;7.50;;;6.10;66.80;;;;;;5025581;28;20623;-65
2022/02/28 07:44:13;;;;;;;10.90;7.43;;;6.20;66.80;;;;;;5028592;28;20211;-63
2022/02/28 07:46:41;;;;;;;13.43;8.53;;;6.30;66.70;;;;;;5024488;28;20293;-65
2022/02/28 07:49:09;;;;;;;11.17;7.40;;;6.40;66.20;;;;;;5028586;28;20661;-65
2022/02/28 07:51:36;;;;;;;12.93;8.37;;;6.50;65.80;;;;;;5024679;28;20207;-65
2022/02/28 07:54:03;;;;;;;10.63;7.03;;;6.70;65.40;;;;;;4995631;28;20222;-65
2022/02/28 07:56:30;;;;;;;13.13;7.27;;;6.80;64.90;;;;;;5022052;28;20209;-65
2022/02/28 07:58:57;;;;;;;9.00;5.97;;;6.90;64.70;;;;;;5024599;28;20668;-65
2022/02/28 08:01:24;;;;;;;15.53;6.20;;;7.10;64.20;;;;;;5021207;28;20226;-65
2022/02/28 08:03:51;;;;;;;8.87;7.17;;;7.30;63.40;;;;;;5018594;28;20254;-65
2022/02/28 08:06:19;;;;;;;8.07;5.83;;;7.50;62.60;;;;;;5018853;28;20525;-65
2022/02/28 08:08:46;;;;;;;8.37;5.93;;;7.60;61.50;;;;;;5029278;28;20226;-65
2022/02/28 08:11:13;;;;;;;12.40;7.70;;;7.70;59.30;;;;;;5023562;28;20223;-65
2022/02/28 08:13:40;;;;;;;9.43;6.10;;;7.80;59.90;;;;;;5022143;28;20207;-65
2022/02/28 08:16:07;;;;;;;8.10;5.93;;;7.90;58.90;;;;;;5022990;28;20225;-65
2022/02/28 08:18:34;;;;;;;8.87;5.57;;;8.00;58.40;;;;;;5021338;28;20214;-65
2022/02/28 08:21:01;;;;;;;7.43;6.00;;;8.10;58.30;;;;;;5026281;28;20206;-65
2022/02/28 08:23:28;;;;;;;8.73;5.30;;;8.20;56.10;;;;;;5006776;28;20272;-65
2022/02/28 08:25:55;;;;;;;8.07;5.60;;;8.30;57.20;;;;;;5018198;28;20202;-65
2022/02/28 08:28:23;;;;;;;12.57;5.80;;;8.30;55.50;;;;;;5018551;28;20665;-65
2022/02/28 08:30:51;;;;;;;6.43;5.17;;;8.40;55.40;;;;;;5023468;28;20198;-65
2022/02/28 08:33:18;;;;;;;8.33;5.63;;;8.50;56.30;;;;;;5024455;28;20201;-65
2022/02/28 08:35:45;;;;;;;6.83;5.50;;;8.70;55.10;;;;;;5020305;28;20208;-66
2022/02/28 08:38:17;;;;;;;6.33;5.13;;;8.80;54.40;;;;;;5020428;28;20203;-65
2022/02/28 08:40:45;;;;;;;8.57;5.53;;;8.90;55.10;;;;;;5028358;28;20235;-65
2022/02/28 08:43:12;;;;;;;7.70;5.57;;;9.00;53.50;;;;;;5025439;28;20522;-65
2022/02/28 08:45:39;;;;;;;8.13;6.33;;;9.10;53.20;;;;;;5005768;28;20211;-65
2022/02/28 08:48:06;;;;;;;8.23;6.07;;;9.10;53.20;;;;;;5022781;28;20230;-65
2022/02/28 08:50:34;;;;;;;7.40;5.53;;;9.20;52.50;;;;;;5019200;28;20207;-65
2022/02/28 08:53:01;;;;;;;9.37;6.40;;;9.30;52.80;;;;;;5003056;28;20206;-65
2022/02/28 08:55:29;;;;;;;7.63;5.30;;;9.40;53.20;;;;;;5024544;28;20215;-65
2022/02/28 08:57:56;;;;;;;6.13;5.20;;;9.60;52.00;;;;;;5018979;28;20201;-65
2022/02/28 09:00:23;;;;;;;9.53;5.20;;;9.70;51.30;;;;;;5015956;28;20208;-65
2022/02/28 09:02:50;;;;;;;11.20;5.50;;;9.80;50.20;;;;;;5019625;28;20656;-66
2022/02/28 09:05:17;;;;;;;9.90;6.97;;;9.80;50.20;;;;;;5023850;28;20236;-65
2022/02/28 09:07:44;;;;;;;10.70;5.60;;;9.80;51.00;;;;;;5020864;28;20213;-65
2022/02/28 09:10:12;;;;;;;24.63;6.80;;;9.90;50.00;;;;;;5016659;28;20239;-65
2022/02/28 09:12:39;;;;;;;10.80;6.77;;;9.90;50.50;;;;;;5028247;28;20214;-65
2022/02/28 09:15:07;;;;;;;9.67;6.47;;;10.00;50.40;;;;;;5021120;28;20200;-65
2022/02/28 09:17:34;;;;;;;10.67;6.90;;;10.10;49.80;;;;;;5022737;28;20636;-65
2022/02/28 09:20:02;;;;;;;10.97;5.90;;;10.10;50.00;;;;;;5022897;28;20279;-65
2022/02/28 09:22:29;;;;;;;9.97;6.20;;;10.20;50.60;;;;;;5012866;28;20216;-65
2022/02/28 09:24:56;;;;;;;8.67;6.13;;;10.40;50.30;;;;;;5019857;28;20929;-65
2022/02/28 09:27:23;;;;;;;12.37;6.67;;;10.50;50.90;;;;;;5021143;28;20221;-65
2022/02/28 09:30:11;;;;;;;11.17;6.00;;;10.70;50.70;;;;;;5019351;28;20261;-65
2022/02/28 09:32:41;;;;;;;8.60;5.93;;;10.80;50.40;;;;;;5000785;28;20224;-65
2022/02/28 09:35:08;;;;;;;9.90;6.20;;;10.90;50.20;;;;;;5020752;28;20231;-65
2022/02/28 09:37:35;;;;;;;10.20;6.53;;;11.10;50.10;;;;;;5021193;28;20215;-65
2022/02/28 09:40:05;;;;;;;9.60;5.87;;;11.20;49.60;;;;;;5003759;28;20228;-65
2022/02/28 09:42:35;;;;;;;17.87;7.13;;;11.30;49.70;;;;;;5014876;28;20249;-65
2022/02/28 09:45:21;;;;;;;14.30;7.07;;;11.40;49.90;;;;;;5017371;28;20275;-65
2022/02/28 09:48:09;;;;;;;8.33;6.20;;;11.50;49.70;;;;;;5022507;28;20326;-65
2022/02/28 09:51:14;;;;;;;9.03;6.37;;;11.50;49.70;;;;;;5024287;28;20212;-65
2022/02/28 09:53:59;;;;;;;11.07;6.23;;;11.50;49.80;;;;;;5015687;28;20230;-65
2022/02/28 09:56:46;;;;;;;11.97;7.03;;;11.60;50.40;;;;;;5000092;28;20216;-65
2022/02/28 09:59:36;;;;;;;12.67;7.40;;;11.80;50.20;;;;;;5000748;28;20280;-65
2022/02/28 10:02:08;;;;;;;11.47;6.40;;;11.90;49.80;;;;;;5004072;28;20222;-66
2022/02/28 10:04:36;;;;;;;11.93;6.93;;;12.10;50.00;;;;;;5016102;28;20236;-65
2022/02/28 10:07:25;;;;;;;8.97;6.17;;;12.10;49.10;;;;;;5016724;28;20248;-65
2022/02/28 10:10:12;;;;;;;9.97;6.17;;;12.20;49.50;;;;;;5024521;28;20230;-65
2022/02/28 10:12:40;;;;;;;13.47;6.70;;;12.30;49.80;;;;;;5020784;28;20555;-65
2022/02/28 10:15:11;;;;;;;9.73;6.87;;;12.50;50.00;;;;;;5027565;28;20213;-65
2022/02/28 10:17:47;;;;;;;9.83;6.80;;;12.60;49.90;;;;;;5016737;28;20258;-65
2022/02/28 10:20:22;;;;;;;12.33;6.50;;;12.80;49.70;;;;;;5003657;28;20253;-65
2022/02/28 10:22:55;;;;;;;7.63;6.07;;;12.90;49.00;;;;;;5026101;28;20275;-66
2022/02/28 10:25:40;;;;;;;11.13;6.77;;;13.10;47.90;;;;;;5018245;28;20201;-66
2022/02/28 10:28:26;;;;;;;13.10;7.00;;;13.10;46.90;;;;;;4995814;28;20548;-66
2022/02/28 10:31:13;;;;;;;13.40;7.30;;;13.10;47.10;;;;;;5017910;28;20524;-66
2022/02/28 10:34:14;;;;;;;12.20;7.27;;;13.20;47.30;;;;;;5023081;28;20474;-66
2022/02/28 10:37:04;;;;;;;10.33;7.03;;;13.20;46.90;;;;;;5018340;28;20301;-66
2022/02/28 10:39:38;;;;;;;13.97;7.60;;;13.30;47.20;;;;;;5014660;28;20210;-66
2022/02/28 10:42:16;;;;;;;12.60;8.83;;;13.40;47.60;;;;;;5028808;28;20218;-66
2022/02/28 10:44:44;;;;;;;19.77;8.50;;;13.50;47.50;;;;;;5023250;28;20220;-66
2022/02/28 10:47:13;;;;;;;14.97;8.73;;;13.60;47.30;;;;;;5010277;28;20280;-66
2022/02/28 10:49:41;;;;;;;14.27;8.50;;;13.70;46.80;;;;;;4996927;28;20666;-66
2022/02/28 10:52:10;;;;;;;11.40;8.33;;;13.80;46.00;;;;;;5018922;28;20639;-66
2022/02/28 10:54:45;;;;;;;11.57;7.93;;;13.80;45.20;;;;;;5024474;28;20202;-66
2022/02/28 10:57:16;;;;;;;10.63;8.37;;;13.80;44.70;;;;;;5024937;28;20198;-66
2022/02/28 10:59:44;;;;;;;13.20;8.87;;;13.70;44.80;;;;;;5020272;28;20237;-66
2022/02/28 11:02:44;;;;;;;12.47;8.50;;;13.60;44.50;;;;;;5022556;28;20201;-66
2022/02/28 11:05:17;;;;;;;13.47;8.40;;;13.60;45.00;;;;;;4998100;28;20237;-66
2022/02/28 11:07:47;;;;;;;10.57;7.10;;;13.60;45.30;;;;;;5023936;28;20285;-66
2022/02/28 11:10:17;;;;;;;14.23;6.77;;;13.70;45.50;;;;;;5008430;28;20656;-66
2022/02/28 11:12:47;;;;;;;11.03;6.60;;;13.90;44.70;;;;;;5020692;28;20200;-66
2022/02/28 11:15:18;;;;;;;9.37;6.70;;;13.90;45.20;;;;;;5022478;28;20523;-66
2022/02/28 11:17:47;;;;;;;9.83;6.40;;;14.10;44.90;;;;;;5008613;28;20193;-66
2022/02/28 11:20:21;;;;;;;12.33;7.37;;;14.20;44.60;;;;;;5027651;28;20388;-66
2022/02/28 11:22:49;;;;;;;12.30;7.03;;;14.30;44.30;;;;;;5019339;28;20212;-66
2022/02/28 11:25:18;;;;;;;11.97;7.77;;;14.40;43.90;;;;;;5020810;28;20237;-66
2022/02/28 11:27:47;;;;;;;11.17;7.23;;;14.40;43.80;;;;;;5025247;28;20207;-66
2022/02/28 11:30:21;;;;;;;10.23;6.47;;;14.50;44.40;;;;;;5024024;28;20233;-66
2022/02/28 11:33:01;;;;;;;8.33;6.87;;;14.50;44.60;;;;;;5018709;28;20627;-66
2022/02/28 11:35:37;;;;;;;8.73;6.30;;;14.70;44.20;;;;;;5017710;28;20214;-66
2022/02/28 11:38:19;;;;;;;8.53;6.53;;;14.70;42.40;;;;;;5029578;28;20606;-66
2022/02/28 11:40:54;;;;;;;8.60;5.73;;;14.80;42.80;;;;;;5023419;28;20208;-66
2022/02/28 11:43:27;;;;;;;9.73;5.97;;;14.90;42.00;;;;;;4999179;28;20210;-66
2022/02/28 11:46:06;;;;;;;8.77;6.20;;;14.90;41.90;;;;;;5020521;28;20668;-66
2022/02/28 11:48:46;;;;;;;10.27;5.87;;;15.00;40.40;;;;;;5023204;28;20226;-66
2022/02/28 11:51:33;;;;;;;8.90;5.83;;;15.00;40.10;;;;;;5017921;28;20206;-66
2022/02/28 11:54:22;;;;;;;7.17;6.23;;;14.90;38.60;;;;;;5020383;28;20220;-66
2022/02/28 11:56:54;;;;;;;9.63;6.67;;;14.70;39.40;;;;;;5020236;28;20214;-66
2022/02/28 11:59:21;;;;;;;9.33;6.30;;;14.50;38.90;;;;;;5021549;28;20243;-66
2022/02/28 12:01:48;;;;;;;8.83;6.13;;;14.30;39.60;;;;;;5025667;28;20207;-66
2022/02/28 12:04:38;;;;;;;8.10;6.20;;;14.20;40.80;;;;;;5022445;28;20306;-66
2022/02/28 12:07:23;;;;;;;12.23;6.17;;;14.10;40.20;;;;;;5020728;28;20212;-66
2022/02/28 12:10:02;;;;;;;8.07;5.90;;;14.10;41.00;;;;;;5031154;28;20557;-66
2022/02/28 12:12:37;;;;;;;8.27;5.27;;;14.20;41.60;;;;;;5026666;28;20301;-66
2022/02/28 12:15:09;;;;;;;7.63;5.83;;;14.30;39.20;;;;;;5027780;28;20214;-66
2022/02/28 12:17:38;;;;;;;7.00;5.40;;;14.20;38.50;;;;;;5020881;28;20540;-66
2022/02/28 12:20:14;;;;;;;7.97;6.57;;;14.20;38.50;;;;;;5015272;28;20231;-66
2022/02/28 12:23:08;;;;;;;7.77;6.00;;;14.10;39.80;;;;;;5024321;28;20215;-65
2022/02/28 12:25:44;;;;;;;11.63;6.70;;;14.00;38.90;;;;;;5021740;28;20211;-66
2022/02/28 12:28:26;;;;;;;9.63;6.10;;;13.90;40.30;;;;;;5018119;28;20522;-66
2022/02/28 12:30:55;;;;;;;8.87;6.30;;;13.80;39.60;;;;;;5000359;28;20234;-66
2022/02/28 12:33:45;;;;;;;8.33;5.93;;;13.80;38.80;;;;;;5022374;28;20198;-66
2022/02/28 12:36:23;;;;;;;6.60;5.80;;;13.70;38.60;;;;;;5022970;28;20270;-66
2022/02/28 12:38:55;;;;;;;6.43;5.27;;;13.70;39.80;;;;;;5016407;28;20546;-66
2022/02/28 12:41:37;;;;;;;6.87;6.17;;;13.60;38.20;;;;;;5028640;28;20198;-66
2022/02/28 12:44:07;;;;;;;9.57;6.47;;;13.60;38.90;;;;;;5020995;28;20559;-66
2022/02/28 12:46:44;;;;;;;8.50;6.33;;;13.60;39.70;;;;;;5026553;28;20598;-66
2022/02/28 12:49:14;;;;;;;11.50;6.00;;;13.70;39.30;;;;;;5022764;28;20225;-66
2022/02/28 12:51:43;;;;;;;8.57;5.83;;;13.80;39.60;;;;;;5018266;28;20654;-66
2022/02/28 12:54:20;;;;;;;9.20;6.67;;;13.90;39.70;;;;;;5021983;28;20208;-66
2022/02/28 12:56:59;;;;;;;9.27;5.80;;;14.00;40.10;;;;;;5024963;28;20214;-66
2022/02/28 12:59:45;;;;;;;8.20;6.13;;;14.10;40.00;;;;;;5000991;28;20246;-66
2022/02/28 13:02:15;;;;;;;10.23;6.60;;;14.30;40.30;;;;;;5017039;28;20234;-66
2022/02/28 13:04:54;;;;;;;9.20;6.27;;;14.50;40.40;;;;;;5022768;28;20210;-66